LTFJLTBS

Guest
Details From LTFJ - SABIHA GOKCEN
To LTBS - DALAMAN
Flight Number -
Tags generated
Created
Modified
Stats Distance 266 nm / 492 km
Max Altitude 32,900 ft / 10,028 m
Waypoints 7
Social Downloads 7
Likes 0
Share VATSIM

Download

Looking for another format? Having issues loading an existing format? Contact us
Advertisement - Login to hide

Notes

Basic altitude profile: - Ascent Rate: 2500ft/min - Ascent Speed: 250kts - Cruise Altitude: 35000ft - Cruise Speed: 420kts - Descent Rate: 1500ft/min - Descent Speed: 250kts Options: - Use NATs: yes - Use PACOTS: yes - Use low airways: yes - Use high airways: yes

Route

LTFJ KUDAK UL854 KULAR UW87 LAVTA W87 KAVAK LTBS

ID Type Via Altitude Latitude Longitude Leg Dist Tot Dist Heading (true) Name
O LTFJ APT - 0 ft / 0 m 40.89855˚ 29.30922˚ - 0 nm - SABIHA GOKCEN
KUDAK FIX - 32,900 ft / 10,028 m 39.29889˚ 28.27667˚ 107 nm 107 nm 207° / 206° -
ESKIN FIX UL854 (AWY-HI) 29,500 ft / 8,992 m 39.05000˚ 28.39806˚ 15 nm 123 nm 159° / 159° -
KULAR FIX UL854 (AWY-HI) 27,500 ft / 8,382 m 38.58222˚ 28.63278˚ 30 nm 153 nm 159° / 159° -
LAVTA FIX UW87 (AWY-HI) 27,500 ft / 8,382 m 37.72167˚ 28.70333˚ 51 nm 205 nm 176° / 176° -
KAVAK FIX W87 (AWY-LO) 13,500 ft / 4,115 m 37.35722˚ 28.73278˚ 21 nm 227 nm 176° / 176° -
O LTBS APT - 0 ft / 0 m 36.71319˚ 28.79251˚ 38 nm 265 nm 176° / 176° DALAMAN

Altitude Profile

Advertisement - Login to hide

Weather


0- 5 10 15 20 25 30 35+ Temperature / ° C

Clouds and Precipitation
Forecast for 2017-12-18 00:00 UTC. Updated 35 minutes ago

Ground ~20,000 ft ~40,000 ft Winds

LTFJ

Details ICAO LTFJ (SAW)
Name SABIHA GOKCEN
Region Turkey
Timezone Europe/Istanbul (UTC+3.0)
Stats Elevation 312 ft / 95 m (AMSL)
Location 40.898552° 29.309221°
Runways 1
Magnetic Variation 5.475° E

METAR

LTFJ 172320Z 04009KT 9999 -SHRA BKN030 BKN090 08/07 Q1014 NOSIG

Decode

TAF

TAF AMD LTFJ 171849Z 1718/1818 22008KT 9999 -SHRA SCT010 BKN030 TEMPO 1719/1723 4000 -TSRA SCT020CB BKN030 BECMG 1720/1723 01010KT PROB30 TEMPO 1810/1814 -TSRA FEW018CB BKN030=

Decode

Departure Runways

ID Width Length Bearing (true) Bearing (mag) Surface Threshold Offset Overrun Length
06 148 ft / 45 m 9,690 ft / 2,953 m 64.01° 58.54° Concrete 0 ft / 0 m 197 ft / 60 m
24 148 ft / 45 m 9,690 ft / 2,953 m 244.03° 238.56° Concrete 0 ft / 0 m 197 ft / 60 m

LTBS

Details ICAO LTBS (DLM)
Name DALAMAN
Region Turkey
Timezone Europe/Istanbul (UTC+3.0)
Stats Elevation 20 ft / 6 m (AMSL)
Location 36.713189° 28.792513°
Runways 1
Magnetic Variation 4.880° E

METAR

LTBS 172320Z 16009KT 130V190 9999 SCT020 BKN070 18/13 Q1017 NOSIG

Decode

TAF

Not found

Destination Runways

ID Width Length Bearing (true) Bearing (mag) Surface Threshold Offset Overrun Length
01 148 ft / 45 m 9,851 ft / 3,003 m 15.24° 10.36° Concrete 0 ft / 0 m 197 ft / 60 m
19 148 ft / 45 m 9,851 ft / 3,003 m 195.25° 190.37° Concrete 0 ft / 0 m 197 ft / 60 m

Popular Alternatives